Vancourt, Texas
Current Conditions -  °F | °C
As of 11:51 AM on Friday 28 Nov 2014 (Local Time) from KSJT Reporting Station
Clear Clear  
Wind Chill: 67°   Ceiling: Unl
Heat Index: 67°   Visibility: 10mi
Dew Point: 43°   Wind: 23mph
Humidity: 42%   Direction: 210°SSW
Pressure: 30.18"   Gusts: 29mph
Location:  31.34°N, 100.18°W
Report Text: KSJT 281751Z 21020G25KT 10SM CLR 19/06 A3018 RMK AO2 PK WND 22026/1741 SLP213 T01940061 10200 20083 58015
Loading
Personal Weather Stations






























Interactive Weather Map New forecast layout! Learn more

10-Day Weather Forecast

Advertisements
Track Severe Weather on mobile